createdAt,value
2022-08-09T00:00:13.890Z,74.30
2022-08-09T00:02:42.986Z,75.38
2022-08-09T00:06:18.189Z,74.31
2022-08-09T00:08:10.055Z,73.86
2022-08-09T00:10:38.382Z,74.03
2022-08-09T00:13:17.588Z,74.68
2022-08-09T00:15:59.340Z,74.67
2022-08-09T00:18:35.821Z,75.13
2022-08-09T00:21:07.819Z,74.94
2022-08-09T00:23:57.762Z,75.15
2022-08-09T00:26:29.935Z,75.13
2022-08-09T00:29:00.856Z,75.38
2022-08-09T00:31:55.886Z,75.75
2022-08-09T00:34:14.175Z,75.51
2022-08-09T00:36:42.056Z,75.22
2022-08-09T00:39:16.793Z,75.88
2022-08-09T00:44:10.586Z,77.28
2022-08-09T00:44:43.284Z,77.27
2022-08-09T00:47:15.316Z,75.71
2022-08-09T00:49:42.646Z,76.17
2022-08-09T00:52:19.534Z,75.62
2022-08-09T00:54:48.482Z,75.94
2022-08-09T00:57:31.866Z,76.18
2022-08-09T01:00:00.903Z,76.47
2022-08-09T01:02:31.258Z,76.53
2022-08-09T01:05:14.235Z,75.98
2022-08-09T01:08:00.221Z,76.56
2022-08-09T01:10:51.170Z,76.09
2022-08-09T01:13:59.041Z,76.93
2022-08-09T01:16:31.858Z,77.56
2022-08-09T01:19:04.878Z,77.80
2022-08-09T01:21:51.130Z,77.82
2022-08-09T01:24:32.351Z,77.34
2022-08-09T01:27:04.185Z,77.60
2022-08-09T01:29:55.964Z,77.31
2022-08-09T01:32:31.873Z,77.65
2022-08-09T01:35:07.008Z,78.41
2022-08-09T01:38:08.418Z,78.37
2022-08-09T01:40:35.694Z,78.66
2022-08-09T01:43:04.574Z,79.30
2022-08-09T01:45:34.368Z,79.54
2022-08-09T01:48:11.572Z,79.72
2022-08-09T01:50:48.218Z,80.06
2022-08-09T01:53:19.529Z,79.73
2022-08-09T01:55:48.205Z,80.10
2022-08-09T01:58:16.639Z,79.62
2022-08-09T02:00:46.282Z,81.26
2022-08-09T02:03:19.422Z,79.11
2022-08-09T02:06:03.453Z,79.17
2022-08-09T02:08:39.997Z,79.28
2022-08-09T02:11:20.161Z,78.67
2022-08-09T02:14:06.586Z,78.03
2022-08-09T02:16:53.438Z,78.41
2022-08-09T02:19:24.110Z,78.30
2022-08-09T02:22:08.047Z,78.34
2022-08-09T02:24:38.114Z,78.77
2022-08-09T02:27:08.570Z,78.92
2022-08-09T02:29:41.636Z,79.37
2022-08-09T02:32:10.829Z,78.50
2022-08-09T02:34:41.594Z,78.12
2022-08-09T02:37:31.741Z,79.09
2022-08-09T02:40:09.307Z,80.02
2022-08-09T02:42:43.100Z,79.74
2022-08-09T02:45:26.712Z,79.76
2022-08-09T02:48:00.886Z,79.12
2022-08-09T02:50:33.356Z,79.71
2022-08-09T02:53:07.743Z,80.70
2022-08-09T02:55:57.485Z,80.65
2022-08-09T02:58:35.895Z,80.72
2022-08-09T03:01:08.318Z,80.70
2022-08-09T03:04:16.526Z,81.13
2022-08-09T03:06:27.854Z,81.58
2022-08-09T03:08:56.846Z,81.23
2022-08-09T03:12:04.649Z,81.67
2022-08-09T03:14:12.802Z,81.89
2022-08-09T03:16:44.986Z,82.30
2022-08-09T03:19:14.108Z,82.49
2022-08-09T03:21:43.656Z,81.86
2022-08-09T03:24:31.175Z,82.63
2022-08-09T03:27:03.693Z,83.15
2022-08-09T03:29:35.652Z,82.28
2022-08-09T03:32:22.868Z,82.74
2022-08-09T03:34:49.510Z,82.65
2022-08-09T03:37:54.757Z,82.68
2022-08-09T03:40:08.430Z,82.01
2022-08-09T03:42:39.801Z,82.71
2022-08-09T03:45:10.492Z,82.53
2022-08-09T03:47:41.818Z,82.63
2022-08-09T03:50:11.125Z,82.73
2022-08-09T03:52:40.560Z,82.81
2022-08-09T03:55:10.665Z,83.12
2022-08-09T03:57:44.662Z,83.06
2022-08-09T04:00:29.325Z,82.99
2022-08-09T04:02:58.338Z,83.17
2022-08-09T04:05:27.786Z,82.83
2022-08-09T04:07:57.328Z,82.60
2022-08-09T04:10:29.049Z,82.72
2022-08-09T04:12:58.267Z,82.77
2022-08-09T04:15:40.437Z,82.63
2022-08-09T04:18:16.495Z,82.82
2022-08-09T04:20:46.003Z,82.82
2022-08-09T04:23:17.308Z,83.08
2022-08-09T04:25:49.677Z,83.27
2022-08-09T04:28:34.293Z,83.15
2022-08-09T04:31:09.278Z,83.35
2022-08-09T04:33:52.951Z,83.45
2022-08-09T04:36:25.947Z,83.79
2022-08-09T04:38:53.658Z,83.76
2022-08-09T04:41:24.018Z,83.67
2022-08-09T04:44:05.281Z,83.83
2022-08-09T04:46:57.455Z,83.75
2022-08-09T04:49:40.831Z,83.49
2022-08-09T04:52:09.641Z,83.12
2022-08-09T04:54:37.040Z,82.51
2022-08-09T04:57:04.241Z,82.33
2022-08-09T04:59:31.537Z,82.49
2022-08-09T05:01:58.221Z,82.18
2022-08-09T05:04:31.147Z,81.83
2022-08-09T05:06:58.565Z,81.76
2022-08-09T05:09:41.871Z,81.42
2022-08-09T05:12:11.089Z,80.86
2022-08-09T05:14:39.163Z,80.71
2022-08-09T05:18:36.760Z,80.58
2022-08-09T05:19:56.656Z,80.51
2022-08-09T05:22:33.458Z,80.19
2022-08-09T05:25:04.802Z,80.23
2022-08-09T05:27:31.435Z,80.14
2022-08-09T05:29:58.073Z,79.81
2022-08-09T05:32:26.265Z,79.54
2022-08-09T05:34:56.758Z,79.26
2022-08-09T05:37:23.837Z,78.60
2022-08-09T05:39:51.795Z,79.16
2022-08-09T05:42:21.787Z,78.84
2022-08-09T05:44:53.557Z,78.54
2022-08-09T05:47:25.281Z,78.86
2022-08-09T05:50:31.136Z,77.90
2022-08-09T05:52:43.536Z,77.23
2022-08-09T05:55:20.963Z,76.84
2022-08-09T05:57:55.525Z,77.10
2022-08-09T06:00:29.144Z,76.63
2022-08-09T06:03:00.126Z,76.72
2022-08-09T06:05:50.653Z,76.70
2022-08-09T06:08:19.873Z,75.48
2022-08-09T06:10:52.766Z,74.95
2022-08-09T06:13:20.647Z,74.94
2022-08-09T06:15:51.745Z,74.36
2022-08-09T06:18:20.909Z,73.78
2022-08-09T06:20:54.780Z,73.48
2022-08-09T06:23:55.197Z,72.50
2022-08-09T06:26:14.839Z,72.86
2022-08-09T06:28:47.227Z,72.73
2022-08-09T06:31:13.800Z,72.65
2022-08-09T06:33:42.108Z,71.44
2022-08-09T06:36:15.364Z,71.53
2022-08-09T06:38:50.282Z,70.59
2022-08-09T06:41:18.299Z,70.44
2022-08-09T06:43:46.953Z,70.10
2022-08-09T06:46:39.540Z,68.24
2022-08-09T06:49:01.462Z,68.16
2022-08-09T06:51:28.245Z,67.27
2022-08-09T06:53:55.352Z,66.04
2022-08-09T06:56:21.875Z,66.62
2022-08-09T07:00:56.498Z,66.33
2022-08-09T07:01:57.878Z,65.97
2022-08-09T07:04:27.096Z,64.61
2022-08-09T07:07:00.443Z,63.55
2022-08-09T07:09:54.900Z,63.91
2022-08-09T07:12:18.140Z,64.27
2022-08-09T07:14:51.188Z,62.01
2022-08-09T07:17:19.889Z,62.28
2022-08-09T07:19:48.229Z,61.24
2022-08-09T07:22:39.585Z,60.64
2022-08-09T07:25:10.785Z,62.43
2022-08-09T07:27:42.398Z,60.66
2022-08-09T07:30:13.346Z,60.35
2022-08-09T07:32:43.591Z,60.93
2022-08-09T07:35:14.730Z,61.00
2022-08-09T07:37:45.734Z,60.11
2022-08-09T07:40:20.370Z,60.69
2022-08-09T07:42:54.509Z,58.79
2022-08-09T07:45:33.328Z,58.34
2022-08-09T07:48:06.127Z,56.30
2022-08-09T07:50:36.771Z,56.99
2022-08-09T07:53:04.532Z,58.59
2022-08-09T07:55:41.609Z,58.46
2022-08-09T07:58:18.638Z,57.18
2022-08-09T08:00:55.961Z,54.66
2022-08-09T08:03:33.123Z,56.05
2022-08-09T08:06:03.492Z,56.28
2022-08-09T08:09:02.323Z,55.96
2022-08-09T08:12:10.225Z,54.85
2022-08-09T08:14:04.820Z,55.14
2022-08-09T08:16:32.968Z,55.52
2022-08-09T08:19:03.233Z,53.90
2022-08-09T08:21:31.484Z,53.98
2022-08-09T08:24:00.879Z,54.41
2022-08-09T08:26:41.833Z,52.94
2022-08-09T08:29:15.077Z,53.29
2022-08-09T08:32:03.927Z,53.81
2022-08-09T08:34:34.665Z,52.64
2022-08-09T08:37:03.959Z,50.95
2022-08-09T08:39:39.663Z,51.84
2022-08-09T08:42:11.329Z,51.68
2022-08-09T08:44:38.060Z,49.60
2022-08-09T08:47:12.781Z,48.41
2022-08-09T08:49:47.757Z,49.04
2022-08-09T08:52:52.734Z,50.31
2022-08-09T08:55:08.507Z,50.72
2022-08-09T08:57:37.106Z,49.86
2022-08-09T09:00:13.150Z,49.82
2022-08-09T09:02:52.227Z,48.65
2022-08-09T09:05:57.433Z,48.19
2022-08-09T09:08:29.249Z,48.03
2022-08-09T09:11:01.057Z,46.06
2022-08-09T09:13:34.702Z,46.75
2022-08-09T09:16:14.050Z,47.37
2022-08-09T09:18:48.737Z,45.62
2022-08-09T09:21:25.225Z,45.54
2022-08-09T09:23:58.369Z,45.05
2022-08-09T09:26:26.159Z,45.28
2022-08-09T09:29:03.663Z,44.60
2022-08-09T09:32:03.726Z,43.69
2022-08-09T09:34:23.872Z,43.63
2022-08-09T09:36:53.349Z,45.38
2022-08-09T09:39:50.238Z,45.06
2022-08-09T09:42:25.819Z,44.34
2022-08-09T09:45:00.433Z,43.20
2022-08-09T09:47:28.732Z,43.98
2022-08-09T09:50:14.267Z,43.33
2022-08-09T09:52:53.694Z,41.76
2022-08-09T09:55:28.263Z,42.77
2022-08-09T09:58:16.444Z,41.90
2022-08-09T10:00:59.007Z,40.92
2022-08-09T10:03:40.146Z,42.69
2022-08-09T10:06:07.074Z,41.79
2022-08-09T10:08:54.412Z,39.72
2022-08-09T10:11:54.003Z,40.36
2022-08-09T10:14:30.963Z,39.83
2022-08-09T10:17:38.708Z,39.95
2022-08-09T10:19:57.071Z,39.81
2022-08-09T10:22:39.008Z,37.94
2022-08-09T10:25:12.438Z,38.08
2022-08-09T10:27:57.150Z,38.99
2022-08-09T10:32:04.265Z,38.60
2022-08-09T10:34:07.710Z,37.42
2022-08-09T10:36:01.240Z,35.64
2022-08-09T10:38:54.881Z,35.92
2022-08-09T10:41:18.587Z,35.37
2022-08-09T10:44:01.094Z,36.19
2022-08-09T10:47:01.394Z,35.36
2022-08-09T10:50:14.802Z,35.94
2022-08-09T10:53:21.132Z,32.89
2022-08-09T10:55:58.270Z,34.16
2022-08-09T10:58:34.701Z,35.04
2022-08-09T11:03:07.341Z,34.52
2022-08-09T11:04:19.859Z,35.79
2022-08-09T11:07:01.537Z,34.43
2022-08-09T11:09:37.476Z,36.13
2022-08-09T11:12:26.395Z,34.89
2022-08-09T11:15:18.468Z,33.81
2022-08-09T11:17:56.916Z,33.57
2022-08-09T11:20:43.279Z,33.44
2022-08-09T11:23:10.545Z,34.16
2022-08-09T11:25:47.091Z,34.41
2022-08-09T11:28:34.472Z,33.79
2022-08-09T11:31:52.943Z,31.87
2022-08-09T11:34:29.381Z,31.97
2022-08-09T11:36:57.551Z,30.44
2022-08-09T11:39:24.471Z,31.80
2022-08-09T11:41:53.639Z,31.86
2022-08-09T11:44:44.236Z,31.50
2022-08-09T11:47:11.000Z,30.64
2022-08-09T11:50:54.378Z,30.63
2022-08-09T11:53:20.931Z,32.18
2022-08-09T11:55:53.587Z,34.02
2022-08-09T11:58:32.953Z,31.81
2022-08-09T12:01:37.539Z,33.22
2022-08-09T12:04:04.153Z,31.64
2022-08-09T12:06:34.958Z,31.63
2022-08-09T12:09:06.266Z,32.69
2022-08-09T12:12:02.286Z,33.37
2022-08-09T12:14:40.535Z,32.81
2022-08-09T12:17:34.091Z,32.77
2022-08-09T12:20:21.922Z,34.60
2022-08-09T12:22:56.047Z,32.95
2022-08-09T12:25:36.817Z,33.01
2022-08-09T12:29:13.271Z,33.41
2022-08-09T12:31:11.168Z,35.39
2022-08-09T12:33:58.616Z,34.81
2022-08-09T12:36:32.420Z,34.65
2022-08-09T12:39:00.683Z,34.90
2022-08-09T12:41:33.702Z,33.87
2022-08-09T12:44:07.895Z,34.25
2022-08-09T12:46:39.665Z,35.10
2022-08-09T12:49:08.692Z,35.31
2022-08-09T12:52:01.448Z,35.90
2022-08-09T12:54:22.203Z,33.43
2022-08-09T12:56:53.929Z,33.56
2022-08-09T12:59:24.521Z,34.07
2022-08-09T13:02:09.280Z,35.05
2022-08-09T13:04:38.779Z,36.66
2022-08-09T13:07:19.553Z,35.51
2022-08-09T13:09:55.501Z,34.98
2022-08-09T13:12:28.025Z,35.68
2022-08-09T13:15:07.457Z,35.28
2022-08-09T13:18:02.435Z,35.88
2022-08-09T13:20:50.156Z,34.97
2022-08-09T13:24:15.936Z,34.94
2022-08-09T13:26:42.303Z,36.74
2022-08-09T13:29:17.664Z,38.19
2022-08-09T13:32:25.451Z,37.66
2022-08-09T13:34:55.566Z,37.16
2022-08-09T13:37:50.568Z,37.70
2022-08-09T13:41:51.052Z,37.56
2022-08-09T13:42:56.494Z,36.15
2022-08-09T13:45:32.143Z,36.66
2022-08-09T13:48:10.665Z,37.15
2022-08-09T13:50:37.693Z,37.26
2022-08-09T13:53:04.245Z,36.29
2022-08-09T13:55:34.226Z,36.46
2022-08-09T13:58:05.088Z,36.76
2022-08-09T14:00:46.773Z,36.60
2022-08-09T14:04:02.622Z,35.04
2022-08-09T14:06:14.674Z,36.27
2022-08-09T14:08:46.738Z,36.73
2022-08-09T14:11:16.077Z,36.52
2022-08-09T14:14:22.720Z,36.86
2022-08-09T14:16:30.165Z,35.44
2022-08-09T14:18:57.322Z,37.01
2022-08-09T14:21:25.675Z,35.88
2022-08-09T14:23:57.314Z,36.11
2022-08-09T14:26:31.463Z,35.99
2022-08-09T14:29:07.444Z,34.80
2022-08-09T14:31:51.978Z,33.80
2022-08-09T14:34:31.873Z,35.08
2022-08-09T14:37:06.726Z,36.23
2022-08-09T14:39:40.174Z,36.19
2022-08-09T14:42:31.669Z,35.08
2022-08-09T14:46:40.014Z,35.15
2022-08-09T14:47:58.177Z,36.09
2022-08-09T14:50:27.673Z,35.68
2022-08-09T14:52:54.612Z,35.88
2022-08-09T14:55:21.391Z,34.68
2022-08-09T14:57:49.179Z,34.82
2022-08-09T15:00:19.306Z,34.97
2022-08-09T15:02:47.285Z,33.59
2022-08-09T15:05:18.313Z,32.31
2022-08-09T15:07:45.656Z,32.62
2022-08-09T15:10:24.957Z,33.91
2022-08-09T15:12:55.664Z,33.54
2022-08-09T15:15:23.533Z,34.46
2022-08-09T15:17:52.941Z,34.46
2022-08-09T15:21:54.922Z,34.52
2022-08-09T15:23:56.099Z,33.96
2022-08-09T15:25:57.435Z,34.04
2022-08-09T15:28:28.521Z,33.10
2022-08-09T15:31:09.885Z,34.01
2022-08-09T15:34:04.413Z,33.66
2022-08-09T15:36:28.807Z,34.46
2022-08-09T15:38:57.100Z,34.11
2022-08-09T15:41:31.416Z,35.89
2022-08-09T15:43:59.680Z,35.25
2022-08-09T15:46:34.515Z,34.34
2022-08-09T15:49:22.159Z,35.54
2022-08-09T15:52:02.857Z,34.10
2022-08-09T15:54:44.271Z,34.96
2022-08-09T15:57:19.057Z,35.33
2022-08-09T16:00:01.867Z,34.84
2022-08-09T16:02:28.420Z,34.22
2022-08-09T16:04:55.602Z,35.60
2022-08-09T16:07:22.495Z,36.19
2022-08-09T16:10:04.916Z,36.09
2022-08-09T16:12:32.817Z,35.11
2022-08-09T16:15:00.340Z,34.35
2022-08-09T16:17:28.710Z,35.67
2022-08-09T16:20:04.740Z,36.08
2022-08-09T16:22:32.415Z,35.70
2022-08-09T16:25:01.443Z,35.90
2022-08-09T16:27:29.811Z,36.02
2022-08-09T16:30:00.693Z,35.43
2022-08-09T16:32:49.610Z,35.41
2022-08-09T16:35:56.537Z,35.96
2022-08-09T16:38:08.078Z,36.19
2022-08-09T16:40:41.059Z,35.76
2022-08-09T16:43:08.400Z,36.49
2022-08-09T16:45:35.071Z,36.19
2022-08-09T16:48:38.241Z,36.79
2022-08-09T16:50:59.014Z,36.73
2022-08-09T16:53:32.157Z,36.95
2022-08-09T16:56:05.917Z,36.79
2022-08-09T16:58:36.946Z,37.80
2022-08-09T17:01:04.705Z,39.40
2022-08-09T17:03:31.741Z,39.03
2022-08-09T17:06:07.646Z,40.61
2022-08-09T17:09:01.432Z,40.81
2022-08-09T17:11:40.256Z,40.10
2022-08-09T17:14:16.235Z,40.16
2022-08-09T17:16:59.732Z,41.58
2022-08-09T17:19:47.652Z,41.92
2022-08-09T17:22:16.123Z,41.68
2022-08-09T17:24:55.407Z,42.21
2022-08-09T17:27:22.354Z,42.29
2022-08-09T17:29:50.656Z,42.73
2022-08-09T17:32:20.430Z,41.72
2022-08-09T17:35:07.659Z,42.76
2022-08-09T17:38:11.580Z,43.11
2022-08-09T17:40:26.468Z,43.47
2022-08-09T17:42:59.437Z,43.67
2022-08-09T17:45:37.652Z,43.53
2022-08-09T17:48:17.157Z,42.53
2022-08-09T17:50:48.609Z,43.52
2022-08-09T17:53:23.381Z,43.49
2022-08-09T17:55:54.083Z,43.83
2022-08-09T17:58:27.135Z,44.48
2022-08-09T18:00:56.750Z,45.07
2022-08-09T18:03:24.947Z,44.88
2022-08-09T18:05:52.926Z,45.61
2022-08-09T18:08:22.035Z,44.96
2022-08-09T18:11:01.591Z,45.17
2022-08-09T18:13:38.947Z,45.44
2022-08-09T18:16:12.534Z,44.91
2022-08-09T18:18:43.052Z,45.75
2022-08-09T18:21:23.152Z,45.91
2022-08-09T18:24:10.889Z,45.44
2022-08-09T18:26:46.349Z,46.50
2022-08-09T18:30:41.257Z,47.01
2022-08-09T18:32:05.614Z,47.28
2022-08-09T18:34:35.170Z,47.06
2022-08-09T18:37:10.498Z,47.84
2022-08-09T18:39:53.055Z,47.96
2022-08-09T18:42:19.843Z,49.04
2022-08-09T18:44:47.815Z,48.51
2022-08-09T18:47:17.546Z,48.72
2022-08-09T18:49:47.330Z,50.41
2022-08-09T18:52:18.818Z,43.93
2022-08-09T18:54:55.083Z,41.23
2022-08-09T18:57:22.914Z,40.41
2022-08-09T18:59:55.182Z,40.80
2022-08-09T19:02:30.780Z,40.22
2022-08-09T19:05:14.960Z,40.06
2022-08-09T19:08:04.298Z,39.66
2022-08-09T19:10:37.136Z,39.41
2022-08-09T19:13:22.970Z,38.64
2022-08-09T19:15:56.248Z,38.64
2022-08-09T19:18:34.143Z,38.98
2022-08-09T19:21:09.579Z,38.54
2022-08-09T19:24:31.472Z,38.37
2022-08-09T19:26:31.262Z,38.37
2022-08-09T19:29:01.688Z,38.03
2022-08-09T19:31:30.430Z,37.86
2022-08-09T19:34:21.140Z,38.31
2022-08-09T19:36:53.583Z,38.10
2022-08-09T19:39:42.980Z,38.01
2022-08-09T19:42:08.242Z,37.90
2022-08-09T19:44:35.416Z,37.38
2022-08-09T19:47:02.699Z,37.67
2022-08-09T19:50:06.998Z,37.60
2022-08-09T19:52:18.311Z,37.47
2022-08-09T19:54:45.085Z,37.19
2022-08-09T19:57:12.212Z,36.79
2022-08-09T19:59:59.344Z,37.03
2022-08-09T20:04:07.181Z,37.04
2022-08-09T20:05:15.242Z,37.09
2022-08-09T20:07:59.760Z,36.75
2022-08-09T20:10:37.101Z,36.61
2022-08-09T20:13:05.845Z,36.87
2022-08-09T20:16:35.537Z,37.01
2022-08-09T20:18:22.132Z,36.81
2022-08-09T20:20:50.446Z,36.49
2022-08-09T20:23:21.139Z,37.32
2022-08-09T20:25:52.829Z,37.07
2022-08-09T20:28:34.640Z,37.17
2022-08-09T20:31:11.204Z,37.13
2022-08-09T20:33:43.878Z,37.20
2022-08-09T20:36:11.337Z,37.13
2022-08-09T20:39:17.038Z,37.48
2022-08-09T20:41:29.219Z,37.58
2022-08-09T20:44:02.289Z,36.97
2022-08-09T20:46:41.882Z,37.54
2022-08-09T20:49:11.262Z,37.58
2022-08-09T20:51:40.917Z,37.40
2022-08-09T20:54:12.804Z,36.35
2022-08-09T20:56:47.233Z,36.46
2022-08-09T20:59:17.137Z,36.47
2022-08-09T21:01:50.294Z,36.21
2022-08-09T21:05:50.797Z,36.22
2022-08-09T21:07:11.794Z,36.09
2022-08-09T21:09:45.804Z,36.39
2022-08-09T21:12:23.187Z,36.68
2022-08-09T21:14:49.830Z,36.98
2022-08-09T21:18:29.568Z,36.51
2022-08-09T21:20:18.108Z,37.41
2022-08-09T21:22:52.757Z,36.72
2022-08-09T21:25:44.071Z,36.54
2022-08-09T21:28:33.574Z,36.42
2022-08-09T21:31:13.627Z,36.31
2022-08-09T21:33:50.768Z,36.56
2022-08-09T21:36:23.959Z,36.74
2022-08-09T21:38:57.324Z,36.68
2022-08-09T21:42:04.788Z,37.06
2022-08-09T21:44:34.715Z,36.60
2022-08-09T21:47:04.065Z,36.92
2022-08-09T21:49:40.246Z,37.27
2022-08-09T21:52:17.595Z,36.68
2022-08-09T21:55:02.953Z,37.30
2022-08-09T21:57:38.734Z,37.37
2022-08-09T22:00:25.691Z,37.45
2022-08-09T22:02:58.708Z,37.85
2022-08-09T22:05:36.848Z,37.16
2022-08-09T22:08:13.228Z,37.22
2022-08-09T22:11:49.352Z,37.04
2022-08-09T22:13:33.897Z,38.15
2022-08-09T22:16:03.704Z,38.28
2022-08-09T22:18:30.862Z,38.37
2022-08-09T22:21:00.343Z,38.23
2022-08-09T22:23:27.221Z,39.19
2022-08-09T22:26:07.258Z,38.82
2022-08-09T22:28:43.570Z,38.84
2022-08-09T22:31:20.252Z,39.12
2022-08-09T22:33:55.435Z,39.28
2022-08-09T22:36:22.328Z,38.95
2022-08-09T22:38:49.074Z,39.40
2022-08-09T22:41:15.634Z,39.76
2022-08-09T22:44:01.873Z,39.83
2022-08-09T22:48:15.227Z,40.16
2022-08-09T22:49:16.335Z,40.18
2022-08-09T22:51:49.580Z,39.81
2022-08-09T22:54:16.994Z,40.21
2022-08-09T22:56:48.069Z,40.49
2022-08-09T22:59:56.774Z,40.05
2022-08-09T23:02:07.879Z,40.00
2022-08-09T23:04:34.786Z,40.29
2022-08-09T23:08:23.318Z,40.77
2022-08-09T23:10:11.356Z,41.14
2022-08-09T23:12:38.062Z,41.07
2022-08-09T23:15:05.459Z,41.23
2022-08-09T23:17:32.335Z,41.47
2022-08-09T23:20:01.118Z,41.58
2022-08-09T23:22:34.309Z,42.17
2022-08-09T23:25:03.395Z,42.13
2022-08-09T23:27:29.915Z,41.95
2022-08-09T23:29:56.458Z,42.05
2022-08-09T23:32:23.167Z,42.06
2022-08-09T23:34:49.822Z,42.57
2022-08-09T23:37:25.936Z,42.82
2022-08-09T23:39:52.609Z,42.68
2022-08-09T23:42:19.187Z,43.04
2022-08-09T23:44:45.813Z,42.82
2022-08-09T23:47:12.542Z,42.72
2022-08-09T23:49:39.067Z,43.40
2022-08-09T23:52:05.699Z,43.36
2022-08-09T23:54:32.503Z,43.44
2022-08-09T23:56:59.175Z,43.33
2022-08-09T23:59:25.970Z,43.79
